Skip Navigation Links
NOAA logo - Click to go to the NOAA homepage
NOAA's National Weather Service
Alaska Aviation Weather Unit
  NWS logo - Click to go to the NWS homepage
Left Navbar Graphic     19 AKDT = 03 GMT

   
NOAA is celebrating 200 years of science, service, and stewardship. Visit the NOAA 200th celebration Web site to learn more.
USA.gov is the U.S. Government's official Web portal to all Federal, state and local government Web resources and services.
Facebook
NWS on Facebook

Important Change Regarding the AAWU Web Presence

 

Over the last several months, the AAWU has been working to navigate its webpages to a nationally supported server. Security, as well as other needs, have necessitated the change.  We have been given an extension for the site changeover while we diligently work at addressing feedback received. As of July 14, 2017, aawu.arh.noaa.gov will be discontinued. The new AAWU web address is weather.gov/aawu. It is now live and will run in-parallel with the old site until it is discontinued on July 14, 2017. Please continue to send any feedback or questions regarding the new webpages to nws.ar.aawu.webauthors@noaa.gov.  Thank you for your patience during this time of transition.
AAWU Home :: Display TAF Add Bookmark
METAR PATL 282155Z AUTO 18001KT 10SM BKN031 BKN049 BKN060 14/08
     A2988=

METAR PATL 282255Z AUTO 31003KT 10SM BKN031 BKN065 15/08 A2988=

PATL 282316Z AUTO 26005KT 10SM -SHRA BKN029 BKN070 15/09 A2988=

PATL 282331Z AUTO 26006KT 10SM SCT029 BKN070 15/08 A2988=

METAR PATL 282355Z AUTO 21001KT 10SM BKN043 BKN070 15/08 A2988=

METAR PATL 290055Z AUTO VRB04KT 10SM BKN042 BKN060 15/08 A2988=

METAR PATL 290155Z AUTO 24002KT 10SM BKN060 15/07 A2987=

METAR PATL 290255Z AUTO VRB03KT 10SM BKN065 15/08 A2987=


NOAA's National Weather Service
Alaska Aviation Weather Unit
6930 Sand Lake Road
Anchorage, AK 99502-1845
Disclaimer
Credits
Glossary
Privacy Policy
About Us
Career Opportunities
Contact AAWU Internet Services Site last modified: April, 17th 2012